Time;durP1;ratioP1;P1;durP2;ratioP2;P2;SDS_P1;SDS_P2;PMS_P1;PMS_P2;Temp;Humidity;BMP_temperature;BMP_pressure;BME280_temperature;BME280_humidity;BME280_pressure;Samples;Min_cycle;Max_cycle;Signal;HPM_P1;HPM_P2
2022/04/18 00:00:55;;;;;;;5.00;2.80;;;;;;;7.94;41.63;97015.03;5032281;28;20057;-79
2022/04/18 00:03:22;;;;;;;3.75;2.30;;;;;;;7.92;41.63;97003.97;5033771;28;20052;-80
2022/04/18 00:05:50;;;;;;;5.82;2.42;;;;;;;7.92;41.29;97006.56;5033241;28;20049;-78
2022/04/18 00:08:17;;;;;;;4.75;2.72;;;;;;;7.95;41.36;97003.66;5033890;28;20423;-78
2022/04/18 00:10:45;;;;;;;4.85;2.92;;;;;;;7.98;41.21;97001.56;5046659;28;20037;-77
2022/04/18 00:13:13;;;;;;;3.65;2.60;;;;;;;8.00;41.71;96999.63;5057334;28;20037;-77
2022/04/18 00:15:40;;;;;;;4.45;3.08;;;;;;;8.03;41.19;96999.31;5056313;28;20093;-77
2022/04/18 00:18:09;;;;;;;9.32;5.82;;;;;;;8.04;41.98;96990.53;5056177;28;20045;-76
2022/04/18 00:20:36;;;;;;;7.35;4.78;;;;;;;8.08;41.58;96996.22;5056671;28;20030;-76
2022/04/18 00:23:04;;;;;;;5.80;3.53;;;;;;;8.13;40.69;96993.97;5051561;28;20045;-78
2022/04/18 00:25:32;;;;;;;7.65;4.03;;;;;;;8.15;40.30;96997.22;5037096;28;20056;-78
2022/04/18 00:27:59;;;;;;;5.25;3.67;;;;;;;8.16;40.68;96993.69;5035132;28;20050;-78
2022/04/18 00:30:27;;;;;;;4.85;3.60;;;;;;;8.15;41.13;96989.44;5034707;28;20072;-78
2022/04/18 00:32:54;;;;;;;4.32;2.92;;;;;;;8.15;40.58;96986.84;5035835;28;20060;-78
2022/04/18 00:35:23;;;;;;;4.47;3.20;;;;;;;8.16;40.63;96987.66;5034726;28;20057;-77
2022/04/18 00:37:51;;;;;;;2.55;2.00;;;;;;;8.16;40.36;96983.28;5033478;28;20496;-77
2022/04/18 00:40:18;;;;;;;3.30;2.25;;;;;;;8.17;39.75;96982.28;5034249;28;20426;-77
2022/04/18 00:42:46;;;;;;;2.40;2.13;;;;;;;8.15;39.82;96975.63;5033643;28;20052;-78
2022/04/18 00:45:13;;;;;;;3.53;2.30;;;;;;;8.14;40.78;96974.81;5033634;28;20057;-78
2022/04/18 00:47:41;;;;;;;3.72;1.90;;;;;;;8.14;40.32;96977.41;5032580;28;20049;-78
2022/04/18 00:50:09;;;;;;;2.55;1.85;;;;;;;8.13;40.54;96973.19;5033573;28;20056;-78
2022/04/18 00:52:38;;;;;;;2.05;1.75;;;;;;;8.11;41.03;96974.31;5033466;28;20045;-76
2022/04/18 00:55:08;;;;;;;4.00;1.92;;;;;;;8.09;41.17;96971.06;5032992;28;20053;-78
2022/04/18 00:57:37;;;;;;;4.82;2.10;;;;;;;8.11;41.28;96975.16;5047497;28;20045;-77
2022/04/18 01:00:05;;;;;;;2.60;2.10;;;;;;;8.15;41.13;96968.63;5053543;28;20055;-77
2022/04/18 01:02:33;;;;;;;3.67;2.10;;;;;;;8.27;41.33;96966.59;5035139;28;20049;-77
2022/04/18 01:05:00;;;;;;;3.90;2.83;;;;;;;8.35;41.61;96964.03;5031848;28;20085;-78
2022/04/18 01:07:28;;;;;;;5.47;3.00;;;;;;;8.33;41.71;96963.38;5031342;28;20052;-77
2022/04/18 01:09:57;;;;;;;3.38;3.08;;;;;;;8.25;41.44;96966.75;5032004;28;20049;-78
2022/04/18 01:12:25;;;;;;;3.55;2.78;;;;;;;8.20;41.96;96960.41;5033005;28;20045;-78
2022/04/18 01:14:53;;;;;;;2.75;2.50;;;;;;;8.15;42.41;96958.25;5033585;28;20050;-78
2022/04/18 01:17:20;;;;;;;2.95;2.58;;;;;;;8.07;41.73;96952.22;5032206;28;20499;-78
2022/04/18 01:19:48;;;;;;;2.88;2.53;;;;;;;8.00;41.72;96952.03;5033138;28;20049;-78
2022/04/18 01:22:19;;;;;;;2.30;2.08;;;;;;;7.95;42.39;96955.09;5032693;28;20499;-77
2022/04/18 01:30:17;;;;;;;3.45;2.47;;;;;;;8.04;41.33;96942.94;5032825;28;20049;-78
2022/04/18 01:32:45;;;;;;;3.45;2.58;;;;;;;8.04;41.47;96946.34;5032930;28;20522;-78
2022/04/18 01:35:12;;;;;;;4.80;2.78;;;;;;;8.06;41.99;96941.00;5032716;28;20515;-78
2022/04/18 01:37:41;;;;;;;4.88;2.47;;;;;;;8.12;42.18;96948.19;5031706;28;20058;-77
2022/04/18 01:40:09;;;;;;;4.03;2.58;;;;;;;8.14;42.03;96943.66;5032345;28;20419;-78
2022/04/18 01:42:37;;;;;;;2.60;2.40;;;;;;;8.15;42.50;96945.25;5039050;28;20053;-78
2022/04/18 01:45:05;;;;;;;4.97;2.80;;;;;;;8.18;42.20;96938.97;5051992;28;20132;-78
2022/04/18 01:47:33;;;;;;;3.80;2.70;;;;;;;8.16;41.77;96939.09;5050389;28;20105;-78
2022/04/18 01:50:00;;;;;;;3.88;3.03;;;;;;;8.17;42.22;96934.72;5050294;28;20053;-78
2022/04/18 01:52:28;;;;;;;4.28;3.05;;;;;;;8.17;42.13;96926.91;5033416;28;20060;-77
2022/04/18 01:54:57;;;;;;;3.05;2.55;;;;;;;8.13;42.37;96934.19;5032920;28;20127;-78
2022/04/18 01:57:24;;;;;;;3.13;2.85;;;;;;;8.12;42.48;96931.78;5031843;28;20054;-78
2022/04/18 01:59:52;;;;;;;4.78;3.08;;;;;;;8.12;41.92;96927.41;5032515;28;20049;-78
2022/04/18 02:02:19;;;;;;;6.07;2.75;;;;;;;8.10;42.70;96925.94;5033105;28;20060;-78
2022/04/18 02:04:47;;;;;;;3.92;2.65;;;;;;;8.09;41.78;96919.94;5032497;28;20140;-78
2022/04/18 02:07:14;;;;;;;4.25;2.38;;;;;;;8.11;41.59;96919.75;5031617;28;20059;-77
2022/04/18 02:09:42;;;;;;;2.33;2.10;;;;;;;8.10;41.12;96921.53;5032705;28;20049;-78
2022/04/18 02:12:11;;;;;;;3.05;1.83;;;;;;;8.03;40.63;96921.34;5032688;28;20045;-78
2022/04/18 02:14:39;;;;;;;2.88;2.03;;;;;;;7.97;40.96;96915.97;5032487;28;20049;-78
2022/04/18 02:17:07;;;;;;;4.03;2.42;;;;;;;7.90;41.15;96912.41;5032481;28;20053;-78
2022/04/18 02:19:34;;;;;;;2.60;2.13;;;;;;;7.87;41.77;96908.34;5035993;28;20056;-78
2022/04/18 02:22:02;;;;;;;4.20;2.03;;;;;;;7.88;42.17;96909.13;5036205;28;20053;-78
2022/04/18 02:24:29;;;;;;;2.67;2.47;;;;;;;7.89;42.55;96914.16;5035689;28;20499;-78
2022/04/18 02:26:57;;;;;;;4.43;3.03;;;;;;;7.95;42.25;96910.94;5034579;28;20502;-78
2022/04/18 02:29:26;;;;;;;2.63;2.22;;;;;;;7.97;42.28;96913.38;5035739;28;20558;-78
2022/04/18 02:34:38;;;;;;;5.53;2.53;;;;;;;7.86;42.40;96905.88;5036355;28;20492;-78
2022/04/18 02:37:06;;;;;;;4.63;2.53;;;;;;;7.87;43.42;96902.31;5034755;28;20056;-78
2022/04/18 02:39:33;;;;;;;4.18;2.75;;;;;;;7.91;42.46;96895.81;5035576;28;20495;-78
2022/04/18 02:42:01;;;;;;;5.40;2.78;;;;;;;7.85;42.60;96897.28;5035473;28;20655;-78
2022/04/18 02:44:30;;;;;;;5.93;3.08;;;;;;;7.77;42.45;96895.47;5035537;28;20053;-77
2022/04/18 02:46:57;;;;;;;4.05;2.90;;;;;;;7.73;42.38;96888.13;5034419;28;20046;-78
2022/04/18 02:49:25;;;;;;;4.03;2.22;;;;;;;7.70;42.74;96888.47;5035536;28;20426;-78
2022/04/18 02:51:52;;;;;;;4.45;2.72;;;;;;;7.72;43.59;96887.34;5035622;28;20049;-78
2022/04/18 02:54:20;;;;;;;5.45;2.83;;;;;;;7.80;43.30;96887.34;5035266;28;20049;-78
2022/04/18 02:56:47;;;;;;;4.95;2.75;;;;;;;7.83;43.13;96889.63;5034690;28;20046;-78
2022/04/18 02:59:15;;;;;;;5.25;3.33;;;;;;;7.81;42.77;96890.78;5035210;28;20049;-78
2022/04/18 03:01:44;;;;;;;4.05;3.15;;;;;;;7.76;42.78;96878.25;5035506;28;20049;-78
2022/04/18 03:04:12;;;;;;;3.75;3.22;;;;;;;7.74;42.92;96879.38;5035459;28;20141;-77
2022/04/18 03:06:39;;;;;;;6.40;3.15;;;;;;;7.70;42.66;96876.28;5034388;28;20064;-77
2022/04/18 03:09:07;;;;;;;4.00;2.80;;;;;;;7.70;43.54;96878.06;5035119;28;20510;-78
2022/04/18 03:11:34;;;;;;;2.95;2.63;;;;;;;7.77;44.48;96874.69;5035068;28;20049;-78
2022/04/18 03:14:02;;;;;;;3.80;3.25;;;;;;;7.80;43.48;96879.56;5034863;28;20049;-79
2022/04/18 03:16:29;;;;;;;5.20;3.70;;;;;;;7.77;42.99;96874.69;5034560;28;20049;-78
2022/04/18 03:18:58;;;;;;;3.45;2.75;;;;;;;7.73;43.32;96875.97;5035152;28;20046;-78
2022/04/18 03:21:26;;;;;;;5.55;3.13;;;;;;;7.72;43.44;96870.91;5035051;28;20451;-77
2022/04/18 03:23:55;;;;;;;5.07;3.10;;;;;;;7.72;43.66;96866.56;5034704;28;20049;-78
2022/04/18 03:26:22;;;;;;;5.97;3.92;;;;;;;7.70;43.15;96865.91;5034176;28;20049;-77
2022/04/18 03:28:50;;;;;;;5.47;4.00;;;;;;;7.61;43.18;96864.25;5034488;28;20061;-78
2022/04/18 03:31:18;;;;;;;4.68;3.13;;;;;;;7.51;44.09;96868.75;5034662;28;20054;-78
2022/04/18 03:33:45;;;;;;;5.80;2.92;;;;;;;7.46;44.01;96871.00;5034946;28;20054;-78
2022/04/18 03:41:45;;;;;;;6.18;2.92;;;;;;;7.29;44.03;96862.31;5034527;28;20056;-78
2022/04/18 03:44:12;;;;;;;4.47;3.35;;;;;;;7.21;44.05;96861.31;5034537;28;20068;-78
2022/04/18 03:46:40;;;;;;;5.65;3.53;;;;;;;7.10;44.13;96855.56;5044768;28;20053;-78
2022/04/18 03:49:08;;;;;;;4.65;3.05;;;;;;;7.04;44.84;96856.16;5054067;28;20045;-78
2022/04/18 03:51:37;;;;;;;4.43;3.58;;;;;;;7.01;44.74;96860.69;5041258;28;20049;-78
2022/04/18 03:54:04;;;;;;;3.63;2.88;;;;;;;6.97;44.26;96853.38;5035524;28;20058;-78
2022/04/18 03:56:32;;;;;;;4.30;3.13;;;;;;;6.95;45.08;96853.53;5033773;28;20056;-78
2022/04/18 03:58:59;;;;;;;3.33;2.95;;;;;;;6.96;44.81;96849.16;5034324;28;20054;-77
2022/04/18 04:01:27;;;;;;;5.18;3.42;;;;;;;6.93;44.64;96850.28;5034423;28;20052;-78
2022/04/18 04:03:54;;;;;;;8.38;4.57;;;;;;;6.91;45.34;96852.22;5034127;28;20045;-78
2022/04/18 04:06:22;;;;;;;7.55;4.60;;;;;;;6.93;45.30;96855.47;5033582;28;20046;-77
2022/04/18 04:08:50;;;;;;;8.25;5.18;;;;;;;6.95;46.35;96853.53;5034009;28;20541;-77
2022/04/18 04:11:18;;;;;;;6.75;4.55;;;;;;;7.03;46.04;96859.72;5034153;28;20507;-78
2022/04/18 04:13:46;;;;;;;5.15;3.72;;;;;;;7.11;45.07;96863.19;5034394;28;20057;-78
2022/04/18 04:16:13;;;;;;;4.13;3.60;;;;;;;7.10;44.82;96851.16;5033337;28;20087;-78
2022/04/18 04:18:41;;;;;;;5.50;3.83;;;;;;;7.08;44.84;96849.69;5033956;28;20517;-78
2022/04/18 04:21:08;;;;;;;4.93;3.63;;;;;;;7.04;45.33;96849.22;5033792;28;20108;-78
2022/04/18 04:23:36;;;;;;;4.63;3.80;;;;;;;7.00;45.54;96846.09;5033942;28;20055;-78
2022/04/18 04:26:12;;;;;;;6.35;4.18;;;;;;;7.08;45.77;96844.50;5033151;28;20052;-78
2022/04/18 04:28:39;;;;;;;4.45;3.85;;;;;;;7.16;45.60;96847.16;5033817;28;20045;-79
2022/04/18 04:31:10;;;;;;;5.75;3.53;;;;;;;7.25;45.20;96842.84;5033973;28;20057;-77
2022/04/18 04:33:38;;;;;;;3.88;3.22;;;;;;;7.29;44.70;96844.97;5034093;28;20049;-78
2022/04/18 04:36:05;;;;;;;4.70;3.17;;;;;;;7.31;44.69;96850.00;5032927;28;20057;-77
2022/04/18 04:38:32;;;;;;;3.80;2.88;;;;;;;7.24;44.26;96847.22;5033588;28;20046;-78
2022/04/18 04:41:02;;;;;;;4.05;3.63;;;;;;;7.20;45.13;96840.69;5032762;28;20079;-78
2022/04/18 04:43:31;;;;;;;3.75;3.00;;;;;;;7.18;44.20;96842.63;5033499;28;20562;-78
2022/04/18 04:46:00;;;;;;;6.25;3.47;;;;;;;7.12;44.78;96843.25;5032848;28;20045;-78
2022/04/18 04:48:28;;;;;;;4.50;3.53;;;;;;;7.09;44.55;96839.19;5033596;28;20482;-77
2022/04/18 04:50:55;;;;;;;4.85;3.00;;;;;;;7.05;44.08;96837.84;5033377;28;20053;-78
2022/04/18 04:53:23;;;;;;;3.40;2.47;;;;;;;6.98;44.04;96840.25;5033573;28;20065;-78
2022/04/18 04:55:50;;;;;;;3.67;2.92;;;;;;;6.92;43.87;96842.66;5032463;28;20056;-78
2022/04/18 04:58:18;;;;;;;6.03;2.80;;;;;;;6.85;43.92;96842.44;5033168;28;20164;-78
2022/04/18 05:00:46;;;;;;;6.50;2.88;;;;;;;6.80;43.95;96844.69;5033211;28;20053;-78
2022/04/18 05:03:14;;;;;;;5.82;2.80;;;;;;;6.74;44.12;96842.69;5032922;28;20060;-78
2022/04/18 05:05:42;;;;;;;3.17;2.58;;;;;;;6.72;45.19;96842.03;5032849;28;20064;-78
2022/04/18 05:08:09;;;;;;;3.75;3.15;;;;;;;6.75;44.37;96842.53;5032290;28;20071;-77
2022/04/18 05:10:37;;;;;;;4.15;3.15;;;;;;;6.73;44.28;96843.66;5032876;28;20054;-78
2022/04/18 05:13:05;;;;;;;3.92;3.08;;;;;;;6.70;44.82;96839.59;5033119;28;20053;-78
2022/04/18 05:15:34;;;;;;;4.50;3.40;;;;;;;6.66;44.91;96837.44;5033087;28;20108;-77
2022/04/18 05:18:03;;;;;;;5.82;3.50;;;;;;;6.64;44.80;96835.00;5032045;28;20046;-78
2022/04/18 05:20:31;;;;;;;5.38;3.80;;;;;;;6.60;44.97;96834.50;5032912;28;20065;-78
2022/04/18 05:22:59;;;;;;;7.25;3.47;;;;;;;6.57;44.85;96832.19;5032431;28;20132;-78
2022/04/18 05:25:26;;;;;;;7.05;4.30;;;;;;;6.55;45.06;96826.34;5032809;28;20416;-78
2022/04/18 05:27:54;;;;;;;5.60;3.40;;;;;;;6.53;44.50;96828.28;5031960;28;20041;-78
2022/04/18 05:30:21;;;;;;;4.70;3.40;;;;;;;6.53;44.42;96822.28;5032232;28;20045;-78
2022/04/18 05:32:49;;;;;;;4.15;3.10;;;;;;;6.51;44.86;96819.84;5032352;28;20053;-77
2022/04/18 05:35:18;;;;;;;4.20;3.30;;;;;;;6.53;44.54;96833.47;5032512;28;20076;-78
2022/04/18 05:37:45;;;;;;;4.57;3.22;;;;;;;6.54;44.54;96827.31;5031898;28;20053;-77
2022/04/18 05:40:13;;;;;;;3.65;3.05;;;;;;;6.54;44.67;96829.09;5032654;28;20046;-77
2022/04/18 05:42:40;;;;;;;4.68;3.13;;;;;;;6.54;44.91;96837.69;5032268;28;20056;-78
2022/04/18 05:45:09;;;;;;;4.93;2.85;;;;;;;6.52;44.76;96837.03;5032503;28;20415;-77
2022/04/18 05:47:37;;;;;;;5.20;3.45;;;;;;;6.54;44.60;96834.28;5035299;28;20065;-78
2022/04/18 05:50:06;;;;;;;4.82;3.17;;;;;;;6.54;44.71;96840.28;5036477;28;20046;-78
2022/04/18 05:52:34;;;;;;;3.47;2.70;;;;;;;6.58;45.17;96841.63;5039259;28;20820;-78
2022/04/18 05:55:02;;;;;;;4.13;2.88;;;;;;;6.61;45.00;96845.69;5038598;28;20484;-78
2022/04/18 05:57:29;;;;;;;3.50;3.17;;;;;;;6.66;45.47;96850.41;5036366;28;20052;-78
2022/04/18 05:59:57;;;;;;;5.32;3.03;;;;;;;6.72;45.21;96853.22;5036631;28;20056;-77
2022/04/18 06:02:24;;;;;;;3.67;3.33;;;;;;;6.84;46.39;96853.75;5036518;28;20451;-78
2022/04/18 06:04:53;;;;;;;3.25;2.95;;;;;;;6.98;46.44;96853.22;5036759;28;20045;-78
2022/04/18 06:07:20;;;;;;;3.75;3.20;;;;;;;7.11;45.87;96858.00;5035537;28;20056;-78
2022/04/18 06:09:49;;;;;;;5.35;3.88;;;;;;;7.17;45.48;96854.81;5036286;28;20060;-79
2022/04/18 06:12:20;;;;;;;4.45;3.38;;;;;;;7.23;45.91;96853.34;5035569;28;20057;-79
2022/04/18 06:14:47;;;;;;;4.35;3.17;;;;;;;7.29;45.13;96850.16;5035874;28;20057;-77
2022/04/18 06:17:15;;;;;;;7.10;3.72;;;;;;;7.30;45.65;96854.34;5035049;28;20064;-76
2022/04/18 06:19:42;;;;;;;5.68;3.13;;;;;;;7.31;45.22;96850.81;5036014;28;20499;-78
2022/04/18 06:22:10;;;;;;;4.05;3.40;;;;;;;7.36;46.68;96853.75;5030428;28;20064;-77
2022/04/18 06:24:38;;;;;;;3.63;3.33;;;;;;;7.42;45.63;96847.94;5024777;28;20432;-77
2022/04/18 06:27:07;;;;;;;6.70;3.55;;;;;;;7.48;45.82;96843.09;5033068;28;20049;-78
2022/04/18 06:29:35;;;;;;;4.97;3.40;;;;;;;7.56;46.92;96850.91;5022093;28;20415;-78
2022/04/18 06:32:03;;;;;;;4.18;3.15;;;;;;;7.68;46.30;96843.66;5030145;28;20057;-78
2022/04/18 06:34:30;;;;;;;4.28;3.35;;;;;;;7.80;46.69;96840.59;5035374;28;20499;-77
2022/04/18 06:36:58;;;;;;;5.32;3.30;;;;;;;7.91;46.76;96843.88;5057048;28;20057;-77
2022/04/18 06:39:25;;;;;;;4.80;3.38;;;;;;;8.00;46.03;96848.13;5054560;28;20049;-77
2022/04/18 06:41:55;;;;;;;4.40;2.90;;;;;;;8.02;44.90;96841.81;5029408;28;20064;-78
2022/04/18 06:44:24;;;;;;;4.53;3.38;;;;;;;8.04;45.13;96839.03;5035489;28;20053;-78
2022/04/18 06:46:56;;;;;;;5.40;3.83;;;;;;;8.06;44.60;96834.50;5034831;28;20101;-78
2022/04/18 06:49:24;;;;;;;5.00;3.63;;;;;;;8.10;44.69;96841.00;5036097;28;20127;-79
2022/04/18 06:51:51;;;;;;;4.90;3.67;;;;;;;8.16;45.30;96842.16;5035834;28;20500;-78
2022/04/18 06:54:19;;;;;;;4.97;3.53;;;;;;;8.25;45.67;96836.78;5035687;28;20045;-78
2022/04/18 06:56:59;;;;;;;5.00;3.92;;;;;;;8.34;45.41;96839.41;5033629;28;20045;-77
2022/04/18 06:59:29;;;;;;;5.68;3.85;;;;;;;8.43;45.02;96841.88;5015669;28;20049;-78
2022/04/18 07:01:57;;;;;;;4.75;3.85;;;;;;;8.54;44.40;96840.72;5036683;28;20049;-80
2022/04/18 07:04:26;;;;;;;4.65;3.30;;;;;;;8.65;44.97;96837.78;5041598;28;20525;-80
2022/04/18 07:06:57;;;;;;;4.60;3.35;;;;;;;8.76;42.92;96828.03;5040901;28;20037;-80
2022/04/18 07:09:25;;;;;;;5.22;3.55;;;;;;;8.86;41.95;96833.88;5050066;28;20053;-80
2022/04/18 07:11:52;;;;;;;6.10;3.75;;;;;;;8.96;41.21;96834.50;5043837;28;20052;-81
2022/04/18 07:14:20;;;;;;;5.80;3.75;;;;;;;9.10;40.27;96834.84;5039664;28;20049;-80
2022/04/18 07:16:50;;;;;;;4.32;3.42;;;;;;;9.20;39.79;96836.25;5038107;28;20046;-80
2022/04/18 07:19:17;;;;;;;4.57;3.03;;;;;;;9.32;39.77;96838.50;5048521;28;20049;-79
2022/04/18 07:21:45;;;;;;;5.32;3.17;;;;;;;9.42;39.87;96834.72;5051519;28;20404;-80
2022/04/18 07:24:13;;;;;;;5.20;3.63;;;;;;;9.54;39.64;96845.56;5046491;28;20054;-80
2022/04/18 07:26:40;;;;;;;5.50;2.92;;;;;;;9.67;39.32;96842.44;5051579;28;20113;-80
2022/04/18 07:29:08;;;;;;;5.80;2.70;;;;;;;9.79;38.74;96846.25;5054413;28;20100;-79
2022/04/18 07:31:36;;;;;;;5.63;3.22;;;;;;;9.91;38.63;96844.09;5032832;28;20050;-80
2022/04/18 07:34:05;;;;;;;3.25;2.92;;;;;;;10.02;38.24;96850.72;5042496;28;20046;-80
2022/04/18 07:36:32;;;;;;;4.68;3.10;;;;;;;10.13;37.46;96852.94;5037097;28;20064;-80
2022/04/18 07:39:00;;;;;;;5.72;3.42;;;;;;;10.23;37.09;96856.13;5040396;28;20061;-80
2022/04/18 07:41:29;;;;;;;4.10;3.40;;;;;;;10.33;36.76;96848.09;5041983;28;20045;-80
2022/04/18 07:43:58;;;;;;;4.72;3.22;;;;;;;10.43;36.24;96855.69;5048826;28;20132;-80
2022/04/18 07:46:26;;;;;;;4.57;2.92;;;;;;;10.52;36.51;96846.84;5052127;28;20041;-80
2022/04/18 07:48:54;;;;;;;4.10;3.38;;;;;;;10.62;36.40;96850.00;5045271;28;20049;-80
2022/04/18 07:51:36;;;;;;;3.60;2.95;;;;;;;10.73;36.54;96848.75;5042622;28;20052;-80
2022/04/18 07:54:05;;;;;;;4.30;3.10;;;;;;;10.86;36.28;96856.81;5039308;28;20052;-81
2022/04/18 07:56:33;;;;;;;4.00;2.83;;;;;;;10.96;36.25;96847.94;5038106;28;20052;-80
2022/04/18 07:59:01;;;;;;;5.20;2.80;;;;;;;11.06;35.34;96849.28;5043015;28;20049;-80
2022/04/18 08:01:30;;;;;;;3.95;3.08;;;;;;;11.18;35.05;96854.06;5040989;28;20049;-80
2022/04/18 08:04:00;;;;;;;4.93;2.95;;;;;;;11.26;35.45;96844.34;5049249;28;20072;-79
2022/04/18 08:06:29;;;;;;;4.22;3.03;;;;;;;11.36;34.99;96849.28;5046277;28;20053;-80
2022/04/18 08:08:56;;;;;;;3.58;2.88;;;;;;;11.45;35.46;96850.81;5035731;28;20055;-81
2022/04/18 08:11:24;;;;;;;4.93;2.75;;;;;;;11.54;35.21;96847.16;5035994;28;20045;-80
2022/04/18 08:13:53;;;;;;;4.10;3.17;;;;;;;11.66;35.26;96854.50;5038977;28;20052;-79
2022/04/18 08:16:22;;;;;;;4.60;2.65;;;;;;;11.78;34.67;96857.47;5041219;28;20049;-80
2022/04/18 08:18:50;;;;;;;7.40;2.85;;;;;;;11.86;33.99;96855.56;5036532;28;20061;-80
2022/04/18 08:21:19;;;;;;;3.33;2.65;;;;;;;11.92;34.32;96859.28;5031779;28;20049;-80
2022/04/18 08:23:50;;;;;;;3.35;2.58;;;;;;;12.00;34.11;96867.00;5035368;28;20081;-80
2022/04/18 08:26:19;;;;;;;3.22;2.58;;;;;;;12.09;34.10;96862.47;5036957;28;20053;-79
2022/04/18 08:28:46;;;;;;;3.95;2.90;;;;;;;12.24;34.08;96857.19;5040520;28;20069;-78
2022/04/18 08:31:14;;;;;;;3.95;2.90;;;;;;;12.36;33.88;96859.13;5033694;28;20049;-78
2022/04/18 08:33:42;;;;;;;4.22;2.83;;;;;;;12.47;33.38;96851.81;5032679;28;20046;-78
2022/04/18 08:36:09;;;;;;;4.95;2.78;;;;;;;12.55;33.10;96854.25;5032747;28;20054;-78
2022/04/18 08:38:37;;;;;;;4.32;3.00;;;;;;;12.60;32.97;96851.91;5033853;28;20049;-76
2022/04/18 08:53:38;;;;;;;5.00;2.83;;;;;;;13.18;32.37;96839.47;5034338;28;20061;-78
2022/04/18 08:56:06;;;;;;;5.60;2.75;;;;;;;13.28;32.47;96830.44;5020294;28;20053;-77
2022/04/18 08:58:33;;;;;;;5.47;3.28;;;;;;;13.40;31.74;96828.91;5013780;28;20065;-78
2022/04/18 09:01:02;;;;;;;2.80;2.40;;;;;;;13.54;31.74;96832.44;5026787;28;20049;-77
2022/04/18 09:03:35;;;;;;;3.58;3.03;;;;;;;13.65;31.27;96828.44;5033588;28;20053;-78
2022/04/18 09:06:05;;;;;;;3.78;3.25;;;;;;;13.73;31.58;96833.50;5031989;28;20057;-79
2022/04/18 09:08:34;;;;;;;2.70;2.50;;;;;;;13.83;32.39;96831.34;5033245;28;20419;-79
2022/04/18 09:11:02;;;;;;;2.97;2.70;;;;;;;13.94;31.94;96827.34;5033125;28;20048;-78
2022/04/18 09:13:30;;;;;;;6.22;3.55;;;;;;;14.02;31.28;96833.22;5032956;28;20057;-80
2022/04/18 09:15:58;;;;;;;3.47;3.05;;;;;;;14.09;30.65;96817.50;5032847;28;20080;-79
2022/04/18 09:18:26;;;;;;;4.53;2.63;;;;;;;14.13;30.34;96818.72;5033445;28;20522;-80
2022/04/18 09:20:56;;;;;;;5.15;2.97;;;;;;;14.19;29.92;96820.53;5031964;28;20045;-80
2022/04/18 09:23:28;;;;;;;3.70;2.70;;;;;;;14.25;30.12;96813.69;5035668;28;20059;-81
2022/04/18 09:26:00;;;;;;;3.38;3.08;;;;;;;14.30;29.61;96808.66;5052164;28;20045;-80
2022/04/18 09:28:31;;;;;;;4.22;2.88;;;;;;;14.34;29.69;96809.06;5056053;28;20029;-80
2022/04/18 09:31:07;;;;;;;3.78;2.58;;;;;;;14.44;29.84;96817.34;5036044;28;20500;-80
2022/04/18 09:33:43;;;;;;;4.78;2.83;;;;;;;14.48;29.86;96804.63;5037261;28;20057;-79
2022/04/18 09:36:14;;;;;;;4.03;3.25;;;;;;;14.49;28.79;96801.00;5037054;28;20056;-79
2022/04/18 09:38:45;;;;;;;3.95;2.78;;;;;;;14.56;28.86;96799.19;5038559;28;20055;-80
2022/04/18 09:41:14;;;;;;;4.82;2.63;;;;;;;14.65;29.43;96797.19;5036072;28;20050;-80
2022/04/18 09:43:44;;;;;;;5.43;2.92;;;;;;;14.70;29.16;96794.78;5035856;28;20044;-80
2022/04/18 09:46:12;;;;;;;4.68;3.33;;;;;;;14.70;28.86;96794.78;5040884;28;20513;-80
2022/04/18 09:48:41;;;;;;;4.50;2.90;;;;;;;14.69;28.44;96793.94;5033174;28;20045;-80
2022/04/18 09:51:11;;;;;;;3.88;2.63;;;;;;;14.73;28.15;96789.91;5033415;28;20050;-78
2022/04/18 09:53:43;;;;;;;4.72;2.80;;;;;;;14.79;28.21;96786.47;5034436;28;20418;-81
2022/04/18 09:56:15;;;;;;;4.18;2.85;;;;;;;14.92;27.93;96787.47;5033928;28;20109;-79
2022/04/18 09:58:43;;;;;;;5.57;2.88;;;;;;;14.99;28.25;96778.56;5036626;28;20049;-81
2022/04/18 10:01:32;;;;;;;2.85;2.58;;;;;;;15.08;27.99;96781.78;5033844;28;20052;-80
2022/04/18 10:04:01;;;;;;;6.00;2.50;;;;;;;15.15;27.20;96781.75;5033041;28;20084;-79
2022/04/18 10:06:29;;;;;;;3.80;2.75;;;;;;;15.13;27.73;96782.00;5031293;28;20499;-78
2022/04/18 10:08:58;;;;;;;5.65;2.70;;;;;;;15.11;27.58;96778.75;5031797;28;20054;-78
2022/04/18 10:11:25;;;;;;;2.88;2.58;;;;;;;15.10;28.13;96779.75;5032110;28;20042;-76
2022/04/18 10:13:53;;;;;;;3.38;2.70;;;;;;;15.09;28.49;96774.72;5032345;28;20053;-77
2022/04/18 10:16:22;;;;;;;4.03;3.00;;;;;;;15.11;28.18;96781.38;5031146;28;20045;-78
2022/04/18 10:18:55;;;;;;;4.05;3.20;;;;;;;15.13;28.33;96768.03;5032016;28;20099;-76
2022/04/18 10:21:28;;;;;;;13.15;2.80;;;;;;;15.19;28.27;96768.00;5032980;28;20056;-74
2022/04/18 10:24:21;;;;;;;11.02;3.45;;;;;;;15.27;28.63;96774.06;5032411;28;20053;-74
2022/04/18 10:27:24;;;;;;;4.50;2.72;;;;;;;15.28;28.67;96767.78;5031262;28;20052;-75
2022/04/18 10:29:54;;;;;;;7.82;3.40;;;;;;;15.20;29.46;96764.38;5031742;28;20053;-74
2022/04/18 10:32:24;;;;;;;5.82;2.58;;;;;;;15.18;29.78;96762.97;5034814;28;20054;-80
2022/04/18 10:34:52;;;;;;;3.80;2.45;;;;;;;15.21;29.18;96763.34;5032588;28;20049;-76
2022/04/18 10:37:23;;;;;;;3.47;2.30;;;;;;;15.24;29.38;96762.16;5030787;28;20049;-77
2022/04/18 10:40:02;;;;;;;3.88;2.90;;;;;;;15.28;28.62;96765.16;5070679;22;20052;-77
2022/04/18 10:42:33;;;;;;;4.90;2.72;;;;;;;15.28;29.13;96757.28;5058385;28;20092;-78
2022/04/18 10:45:08;;;;;;;3.38;2.63;;;;;;;15.32;29.57;96758.47;5057814;28;20105;-78
2022/04/18 10:48:02;;;;;;;4.38;2.83;;;;;;;15.37;30.37;96756.84;5144140;22;20109;-78
2022/04/18 10:50:34;;;;;;;4.75;3.08;;;;;;;15.41;28.85;96750.16;5045841;28;20089;-78
2022/04/18 10:53:13;;;;;;;6.40;2.38;;;;;;;15.41;28.74;96749.34;5057211;28;20133;-78
2022/04/18 10:56:13;;;;;;;4.40;2.60;;;;;;;15.43;28.82;96757.81;5052144;28;20068;-78
2022/04/18 10:58:45;;;;;;;3.70;2.38;;;;;;;15.39;28.38;96751.34;5033926;28;20041;-79
2022/04/18 11:01:15;;;;;;;2.70;2.50;;;;;;;15.34;28.91;96736.22;5025892;28;20049;-78
2022/04/18 11:03:57;;;;;;;2.70;2.40;;;;;;;15.36;29.01;96757.03;5040761;28;20527;-77
2022/04/18 11:06:48;;;;;;;3.05;2.47;;;;;;;15.38;28.39;96744.50;5036265;28;20057;-78
2022/04/18 11:09:21;;;;;;;2.15;1.95;;;;;;;15.39;28.49;96740.84;5047162;28;20415;-78
2022/04/18 11:11:54;;;;;;;3.92;2.42;;;;;;;15.40;27.62;96737.22;5048320;28;20043;-78
2022/04/18 11:14:24;;;;;;;2.80;2.47;;;;;;;15.38;27.74;96739.25;5051124;28;20105;-78
2022/04/18 11:16:57;;;;;;;2.55;2.30;;;;;;;15.36;28.02;96733.38;5040704;28;20109;-78
2022/04/18 11:19:27;;;;;;;2.10;1.73;;;;;;;15.37;28.38;96735.00;5044662;28;20049;-78
2022/04/18 11:22:18;;;;;;;2.78;2.30;;;;;;;15.40;28.10;96724.06;5046072;28;20034;-78
2022/04/18 11:24:57;;;;;;;3.50;2.35;;;;;;;15.40;29.12;96722.25;5058180;28;20117;-78
2022/04/18 11:27:33;;;;;;;3.17;2.10;;;;;;;15.47;28.87;96719.59;5057396;28;20132;-78
2022/04/18 11:30:03;;;;;;;3.10;2.17;;;;;;;15.56;28.16;96722.78;5058184;28;20033;-78
2022/04/18 11:32:32;;;;;;;3.15;2.03;;;;;;;15.55;27.73;96729.88;5057937;28;20109;-78
2022/04/18 11:35:02;;;;;;;2.90;1.90;;;;;;;15.56;28.02;96720.94;5058405;28;20037;-78
2022/04/18 11:37:31;;;;;;;3.30;2.17;;;;;;;15.59;27.92;96717.91;5058022;28;20081;-78
2022/04/18 11:40:00;;;;;;;4.43;2.00;;;;;;;15.61;28.06;96715.88;5058659;28;20036;-77
2022/04/18 11:42:29;;;;;;;2.83;2.13;;;;;;;15.64;27.60;96712.03;5058555;28;20033;-78
2022/04/18 11:45:00;;;;;;;4.97;1.90;;;;;;;15.64;27.30;96712.03;5058840;28;20033;-78
2022/04/18 11:47:29;;;;;;;2.40;1.80;;;;;;;15.58;27.48;96708.41;5058086;28;20080;-77
2022/04/18 11:50:01;;;;;;;3.90;2.00;;;;;;;15.53;27.77;96716.13;5058086;28;20033;-78
2022/04/18 11:52:30;;;;;;;3.22;1.92;;;;;;;15.51;28.12;96702.38;5090024;22;20117;-81
2022/04/18 11:55:01;;;;;;;2.78;1.88;;;;;;;15.51;27.86;96712.91;5057792;28;20057;-81
2022/04/18 11:57:30;;;;;;;4.07;2.10;;;;;;;15.50;29.84;96700.75;5033261;28;20403;-77
2022/04/18 12:00:00;;;;;;;3.58;2.08;;;;;;;15.49;28.98;96693.91;5033683;28;20079;-77
2022/04/18 12:08:07;;;;;;;2.25;1.60;;;;;;;15.56;28.78;96689.41;5032500;28;20053;-77
2022/04/18 12:10:41;;;;;;;2.90;1.70;;;;;;;15.63;29.18;96687.56;5017671;28;20050;-80
2022/04/18 12:13:23;;;;;;;2.22;1.88;;;;;;;15.68;27.86;96689.56;5056184;28;20033;-81
2022/04/18 12:15:59;;;;;;;3.28;2.13;;;;;;;15.69;28.39;96680.63;5474270;22;20053;-80
2022/04/18 12:18:27;;;;;;;2.95;1.60;;;;;;;15.70;28.66;96678.81;5285651;22;20079;-78
2022/04/18 12:34:51;;;;;;;3.28;1.55;;;;;;;15.77;28.33;96653.31;3352828;22;20087;-78